sensor_id;sensor_type;location;lat;lon;timestamp;pressure;altitude;pressure_sealevel;temperature;humidity
61742;BME280;47650;49.848;9.620;2024-02-15T00:01:01;100009.38;;;12.03;100.00
61742;BME280;47650;49.848;9.620;2024-02-15T00:03:29;100011.34;;;11.81;100.00
61742;BME280;47650;49.848;9.620;2024-02-15T00:05:55;100005.22;;;11.71;100.00
61742;BME280;47650;49.848;9.620;2024-02-15T00:08:22;99957.44;;;11.52;100.00
61742;BME280;47650;49.848;9.620;2024-02-15T00:10:47;99993.72;;;12.00;100.00
61742;BME280;47650;49.848;9.620;2024-02-15T00:13:13;99990.88;;;12.11;100.00
61742;BME280;47650;49.848;9.620;2024-02-15T00:15:39;99986.41;;;12.12;100.00
61742;BME280;47650;49.848;9.620;2024-02-15T00:18:04;99976.63;;;12.02;100.00
61742;BME280;47650;49.848;9.620;2024-02-15T00:20:30;99981.22;;;12.10;100.00
61742;BME280;47650;49.848;9.620;2024-02-15T00:22:55;99970.16;;;12.15;100.00
61742;BME280;47650;49.848;9.620;2024-02-15T00:25:21;99983.31;;;12.16;100.00
61742;BME280;47650;49.848;9.620;2024-02-15T00:27:48;99971.75;;;11.98;100.00
61742;BME280;47650;49.848;9.620;2024-02-15T00:30:18;99986.72;;;12.27;100.00
61742;BME280;47650;49.848;9.620;2024-02-15T00:32:43;99987.50;;;12.09;100.00
61742;BME280;47650;49.848;9.620;2024-02-15T00:35:11;99953.69;;;12.01;100.00
61742;BME280;47650;49.848;9.620;2024-02-15T00:37:42;99988.97;;;12.31;100.00
61742;BME280;47650;49.848;9.620;2024-02-15T00:40:13;99990.56;;;12.14;100.00
61742;BME280;47650;49.848;9.620;2024-02-15T00:42:38;99941.66;;;12.07;100.00
61742;BME280;47650;49.848;9.620;2024-02-15T00:45:05;99994.41;;;12.30;100.00
61742;BME280;47650;49.848;9.620;2024-02-15T00:47:33;99987.22;;;12.40;100.00
61742;BME280;47650;49.848;9.620;2024-02-15T00:49:58;99944.13;;;12.18;100.00
61742;BME280;47650;49.848;9.620;2024-02-15T00:52:23;99980.16;;;12.31;100.00
61742;BME280;47650;49.848;9.620;2024-02-15T00:54:49;99973.81;;;12.04;100.00
61742;BME280;47650;49.848;9.620;2024-02-15T00:57:14;99977.19;;;12.06;100.00
61742;BME280;47650;49.848;9.620;2024-02-15T00:59:39;99964.91;;;11.95;100.00
61742;BME280;47650;49.848;9.620;2024-02-15T01:02:07;99973.03;;;11.84;100.00
61742;BME280;47650;49.848;9.620;2024-02-15T01:04:34;99974.13;;;12.01;100.00
61742;BME280;47650;49.848;9.620;2024-02-15T01:06:59;99936.13;;;11.81;100.00
61742;BME280;47650;49.848;9.620;2024-02-15T01:09:25;99982.13;;;11.81;100.00
61742;BME280;47650;49.848;9.620;2024-02-15T01:11:51;99989.59;;;11.58;100.00
61742;BME280;47650;49.848;9.620;2024-02-15T01:14:16;99960.72;;;11.83;100.00
61742;BME280;47650;49.848;9.620;2024-02-15T01:16:43;99981.09;;;12.02;100.00
61742;BME280;47650;49.848;9.620;2024-02-15T01:19:09;99978.97;;;12.15;100.00
61742;BME280;47650;49.848;9.620;2024-02-15T01:21:34;99936.38;;;11.97;100.00
61742;BME280;47650;49.848;9.620;2024-02-15T01:24:01;99976.06;;;11.99;100.00
61742;BME280;47650;49.848;9.620;2024-02-15T01:26:27;99963.59;;;12.09;100.00
61742;BME280;47650;49.848;9.620;2024-02-15T01:28:52;99973.94;;;12.12;100.00
61742;BME280;47650;49.848;9.620;2024-02-15T01:31:19;99977.75;;;12.00;100.00
61742;BME280;47650;49.848;9.620;2024-02-15T01:33:45;99975.72;;;11.74;100.00
61742;BME280;47650;49.848;9.620;2024-02-15T01:36:15;99973.81;;;12.04;100.00
61742;BME280;47650;49.848;9.620;2024-02-15T01:38:42;99981.09;;;12.02;100.00
61742;BME280;47650;49.848;9.620;2024-02-15T01:41:08;99979.69;;;12.08;100.00
61742;BME280;47650;49.848;9.620;2024-02-15T01:43:35;99986.69;;;12.09;100.00
61742;BME280;47650;49.848;9.620;2024-02-15T01:46:08;99986.09;;;12.15;100.00
61742;BME280;47650;49.848;9.620;2024-02-15T01:48:35;99991.66;;;12.21;100.00
61742;BME280;47650;49.848;9.620;2024-02-15T01:51:00;99977.81;;;12.18;100.00
61742;BME280;47650;49.848;9.620;2024-02-15T01:53:29;99993.06;;;12.26;100.00
61742;BME280;47650;49.848;9.620;2024-02-15T01:55:56;99968.75;;;12.11;100.00
61742;BME280;47650;49.848;9.620;2024-02-15T01:58:25;99986.03;;;12.25;100.00
61742;BME280;47650;49.848;9.620;2024-02-15T02:00:58;99947.19;;;11.76;100.00
61742;BME280;47650;49.848;9.620;2024-02-15T02:03:26;99955.25;;;11.84;100.00
61742;BME280;47650;49.848;9.620;2024-02-15T02:05:53;99934.28;;;11.81;100.00
61742;BME280;47650;49.848;9.620;2024-02-15T02:08:18;99970.47;;;12.02;100.00
61742;BME280;47650;49.848;9.620;2024-02-15T02:10:44;99983.31;;;12.16;100.00
61742;BME280;47650;49.848;9.620;2024-02-15T02:13:11;99983.59;;;12.13;100.00
61742;BME280;47650;49.848;9.620;2024-02-15T02:15:36;99965.16;;;12.02;100.00
61742;BME280;47650;49.848;9.620;2024-02-15T02:18:04;99978.97;;;12.15;100.00
61742;BME280;47650;49.848;9.620;2024-02-15T02:20:36;99965.28;;;12.10;100.00
61742;BME280;47650;49.848;9.620;2024-02-15T02:23:07;99973.75;;;12.23;100.00
61742;BME280;47650;49.848;9.620;2024-02-15T02:25:36;99951.69;;;12.13;100.00
61742;BME280;47650;49.848;9.620;2024-02-15T02:28:08;99951.78;;;12.21;100.00
61742;BME280;47650;49.848;9.620;2024-02-15T02:30:33;99970.06;;;12.34;100.00
61742;BME280;47650;49.848;9.620;2024-02-15T02:33:00;99958.59;;;12.34;100.00
61742;BME280;47650;49.848;9.620;2024-02-15T02:35:27;99956.50;;;12.28;100.00
61742;BME280;47650;49.848;9.620;2024-02-15T02:37:55;99965.63;;;12.25;100.00
61742;BME280;47650;49.848;9.620;2024-02-15T02:40:25;99952.81;;;12.11;100.00
61742;BME280;47650;49.848;9.620;2024-02-15T02:42:57;99944.53;;;11.76;100.00
61742;BME280;47650;49.848;9.620;2024-02-15T02:45:25;99971.94;;;11.77;100.00
61742;BME280;47650;49.848;9.620;2024-02-15T02:47:50;99956.56;;;11.61;100.00
61742;BME280;47650;49.848;9.620;2024-02-15T02:50:16;99960.50;;;11.57;100.00
61742;BME280;47650;49.848;9.620;2024-02-15T02:52:44;99966.69;;;11.47;100.00
61742;BME280;47650;49.848;9.620;2024-02-15T02:55:09;99951.72;;;11.37;100.00
61742;BME280;47650;49.848;9.620;2024-02-15T02:57:37;99959.97;;;11.43;100.00
61742;BME280;47650;49.848;9.620;2024-02-15T03:00:07;99960.97;;;11.42;100.00
61742;BME280;47650;49.848;9.620;2024-02-15T03:02:43;99958.88;;;11.36;100.00
61742;BME280;47650;49.848;9.620;2024-02-15T03:05:09;99964.34;;;11.25;100.00
61742;BME280;47650;49.848;9.620;2024-02-15T03:07:37;99966.97;;;11.05;100.00
61742;BME280;47650;49.848;9.620;2024-02-15T03:10:06;99911.41;;;10.55;100.00
61742;BME280;47650;49.848;9.620;2024-02-15T03:12:34;99956.78;;;10.71;100.00
61742;BME280;47650;49.848;9.620;2024-02-15T03:15:04;99954.69;;;10.56;100.00
61742;BME280;47650;49.848;9.620;2024-02-15T03:19:58;99964.00;;;10.50;100.00
61742;BME280;47650;49.848;9.620;2024-02-15T03:22:24;99960.22;;;10.43;100.00
61742;BME280;47650;49.848;9.620;2024-02-15T03:24:51;99904.72;;;10.10;100.00
61742;BME280;47650;49.848;9.620;2024-02-15T03:27:18;99955.75;;;10.43;100.00
61742;BME280;47650;49.848;9.620;2024-02-15T03:29:47;99933.69;;;10.33;100.00
61742;BME280;47650;49.848;9.620;2024-02-15T03:32:13;99954.94;;;10.52;100.00
61742;BME280;47650;49.848;9.620;2024-02-15T03:34:38;99956.91;;;10.60;100.00
61742;BME280;47650;49.848;9.620;2024-02-15T03:37:04;99979.53;;;10.74;100.00
61742;BME280;47650;49.848;9.620;2024-02-15T03:39:32;99957.47;;;10.73;100.00
61742;BME280;47650;49.848;9.620;2024-02-15T03:41:58;99959.72;;;10.88;100.00
61742;BME280;47650;49.848;9.620;2024-02-15T03:44:24;99955.84;;;10.92;100.00
61742;BME280;47650;49.848;9.620;2024-02-15T03:46:54;99949.69;;;10.82;100.00
61742;BME280;47650;49.848;9.620;2024-02-15T03:49:21;99927.34;;;10.65;100.00
61742;BME280;47650;49.848;9.620;2024-02-15T03:51:48;99958.91;;;10.97;100.00
61742;BME280;47650;49.848;9.620;2024-02-15T03:54:14;99958.78;;;10.99;100.00
61742;BME280;47650;49.848;9.620;2024-02-15T03:56:49;99956.94;;;11.09;100.00
61742;BME280;47650;49.848;9.620;2024-02-15T03:59:23;99954.00;;;10.93;100.00
61742;BME280;47650;49.848;9.620;2024-02-15T04:01:55;99961.81;;;11.14;100.00
61742;BME280;47650;49.848;9.620;2024-02-15T04:04:22;99940.75;;;10.93;100.00
61742;BME280;47650;49.848;9.620;2024-02-15T04:06:50;99925.94;;;10.70;100.00
61742;BME280;47650;49.848;9.620;2024-02-15T04:09:17;99918.94;;;10.79;100.00
61742;BME280;47650;49.848;9.620;2024-02-15T04:11:44;99958.91;;;11.17;100.00
61742;BME280;47650;49.848;9.620;2024-02-15T04:14:12;99946.59;;;11.16;100.00
61742;BME280;47650;49.848;9.620;2024-02-15T04:16:40;99948.28;;;11.17;100.00
61742;BME280;47650;49.848;9.620;2024-02-15T04:19:06;99951.50;;;11.30;100.00
61742;BME280;47650;49.848;9.620;2024-02-15T04:21:38;99940.47;;;11.25;100.00
61742;BME280;47650;49.848;9.620;2024-02-15T04:24:06;99904.84;;;11.08;100.00
61742;BME280;47650;49.848;9.620;2024-02-15T04:26:32;99959.41;;;11.40;100.00
61742;BME280;47650;49.848;9.620;2024-02-15T04:28:59;99959.69;;;11.46;100.00
61742;BME280;47650;49.848;9.620;2024-02-15T04:31:25;99963.75;;;11.51;100.00
61742;BME280;47650;49.848;9.620;2024-02-15T04:33:54;99932.88;;;11.40;100.00
61742;BME280;47650;49.848;9.620;2024-02-15T04:36:24;99951.31;;;11.51;100.00
61742;BME280;47650;49.848;9.620;2024-02-15T04:38:52;99821.53;;;10.71;100.00
61742;BME280;47650;49.848;9.620;2024-02-15T04:41:19;99930.50;;;11.37;100.00
61742;BME280;47650;49.848;9.620;2024-02-15T04:43:47;99967.66;;;11.56;100.00
61742;BME280;47650;49.848;9.620;2024-02-15T04:46:13;99956.16;;;11.56;100.00
61742;BME280;47650;49.848;9.620;2024-02-15T04:48:39;99954.38;;;11.56;100.00
61742;BME280;47650;49.848;9.620;2024-02-15T04:51:10;99967.66;;;11.46;100.00
61742;BME280;47650;49.848;9.620;2024-02-15T04:53:39;99957.47;;;11.42;100.00
61742;BME280;47650;49.848;9.620;2024-02-15T04:56:05;99962.25;;;11.28;100.00
61742;BME280;47650;49.848;9.620;2024-02-15T04:58:37;99967.84;;;11.35;100.00
61742;BME280;47650;49.848;9.620;2024-02-15T05:01:04;99969.66;;;11.15;100.00
61742;BME280;47650;49.848;9.620;2024-02-15T05:03:32;99965.59;;;11.31;100.00
61742;BME280;47650;49.848;9.620;2024-02-15T05:06:00;99967.25;;;11.41;100.00
61742;BME280;47650;49.848;9.620;2024-02-15T05:08:26;99959.41;;;11.50;100.00
61742;BME280;47650;49.848;9.620;2024-02-15T05:10:51;99971.56;;;11.52;100.00
61742;BME280;47650;49.848;9.620;2024-02-15T05:13:21;99936.81;;;11.36;100.00
61742;BME280;47650;49.848;9.620;2024-02-15T05:15:47;99860.59;;;10.99;100.00
61742;BME280;47650;49.848;9.620;2024-02-15T05:18:12;99945.41;;;11.57;100.00
61742;BME280;47650;49.848;9.620;2024-02-15T05:20:42;99961.19;;;11.69;100.00
61742;BME280;47650;49.848;9.620;2024-02-15T05:23:08;99959.09;;;11.72;100.00
61742;BME280;47650;49.848;9.620;2024-02-15T05:25:33;99945.25;;;11.69;100.00
61742;BME280;47650;49.848;9.620;2024-02-15T05:28:00;99925.72;;;11.60;100.00
61742;BME280;47650;49.848;9.620;2024-02-15T05:30:25;99921.66;;;11.56;100.00
61742;BME280;47650;49.848;9.620;2024-02-15T05:32:51;99903.78;;;11.48;100.00
61742;BME280;47650;49.848;9.620;2024-02-15T05:35:19;99945.38;;;11.77;100.00
61742;BME280;47650;49.848;9.620;2024-02-15T05:37:44;99935.06;;;11.64;100.00
61742;BME280;47650;49.848;9.620;2024-02-15T05:40:12;99908.00;;;11.51;100.00
61742;BME280;47650;49.848;9.620;2024-02-15T05:42:44;99921.09;;;11.62;100.00
61742;BME280;47650;49.848;9.620;2024-02-15T05:45:28;99922.78;;;11.63;100.00
61742;BME280;47650;49.848;9.620;2024-02-15T05:47:59;99941.47;;;11.71;100.00
61742;BME280;47650;49.848;9.620;2024-02-15T05:50:25;99925.03;;;11.58;100.00
61742;BME280;47650;49.848;9.620;2024-02-15T05:52:53;99894.88;;;11.29;100.00
61742;BME280;47650;49.848;9.620;2024-02-15T05:55:20;99935.38;;;11.41;100.00
61742;BME280;47650;49.848;9.620;2024-02-15T05:57:46;99926.75;;;11.29;100.00
61742;BME280;47650;49.848;9.620;2024-02-15T06:00:12;99955.00;;;11.01;100.00
61742;BME280;47650;49.848;9.620;2024-02-15T06:02:37;99953.41;;;11.28;100.00
61742;BME280;47650;49.848;9.620;2024-02-15T06:05:06;99939.59;;;11.24;100.00
61742;BME280;47650;49.848;9.620;2024-02-15T06:07:32;99944.91;;;11.34;100.00
61742;BME280;47650;49.848;9.620;2024-02-15T06:09:58;99926.88;;;11.28;100.00
61742;BME280;47650;49.848;9.620;2024-02-15T06:12:28;99915.84;;;11.23;100.00
61742;BME280;47650;49.848;9.620;2024-02-15T06:14:53;99915.56;;;11.26;100.00
61742;BME280;47650;49.848;9.620;2024-02-15T06:17:20;99947.16;;;11.39;100.00
61742;BME280;47650;49.848;9.620;2024-02-15T06:19:46;99946.59;;;11.35;100.00
61742;BME280;47650;49.848;9.620;2024-02-15T06:22:12;99887.28;;;10.97;100.00
61742;BME280;47650;49.848;9.620;2024-02-15T06:24:38;99950.66;;;11.20;100.00
61742;BME280;47650;49.848;9.620;2024-02-15T06:27:03;99952.72;;;11.26;100.00
61742;BME280;47650;49.848;9.620;2024-02-15T06:29:31;99943.53;;;11.20;100.00
61742;BME280;47650;49.848;9.620;2024-02-15T06:32:15;99870.13;;;10.82;100.00
61742;BME280;47650;49.848;9.620;2024-02-15T06:34:59;99927.19;;;11.25;100.00
61742;BME280;47650;49.848;9.620;2024-02-15T06:37:43;99952.22;;;11.13;100.00
61742;BME280;47650;49.848;9.620;2024-02-15T06:40:27;99885.44;;;10.59;100.00
61742;BME280;47650;49.848;9.620;2024-02-15T06:42:53;99929.00;;;10.95;100.00
61742;BME280;47650;49.848;9.620;2024-02-15T06:45:19;99952.63;;;11.18;100.00
61742;BME280;47650;49.848;9.620;2024-02-15T06:47:46;99938.50;;;11.27;100.00
61742;BME280;47650;49.848;9.620;2024-02-15T06:50:14;99929.84;;;11.25;100.00
61742;BME280;47650;49.848;9.620;2024-02-15T06:52:40;99951.03;;;11.44;100.00
61742;BME280;47650;49.848;9.620;2024-02-15T06:55:08;99946.56;;;11.55;100.00
61742;BME280;47650;49.848;9.620;2024-02-15T06:57:35;99904.53;;;11.21;100.00
61742;BME280;47650;49.848;9.620;2024-02-15T07:00:04;99958.41;;;11.70;100.00
61742;BME280;47650;49.848;9.620;2024-02-15T07:02:33;99955.63;;;11.62;100.00
61742;BME280;47650;49.848;9.620;2024-02-15T07:04:59;99968.63;;;11.65;100.00
61742;BME280;47650;49.848;9.620;2024-02-15T07:07:26;99944.84;;;11.73;100.00
61742;BME280;47650;49.848;9.620;2024-02-15T07:09:51;99961.28;;;11.96;100.00
61742;BME280;47650;49.848;9.620;2024-02-15T07:12:18;99956.75;;;12.07;100.00
61742;BME280;47650;49.848;9.620;2024-02-15T07:14:47;99957.00;;;12.13;100.00
61742;BME280;47650;49.848;9.620;2024-02-15T07:17:15;99916.34;;;12.03;100.00
61742;BME280;47650;49.848;9.620;2024-02-15T07:19:43;99943.63;;;12.33;100.00
61742;BME280;47650;49.848;9.620;2024-02-15T07:22:11;99948.41;;;12.47;100.00
61742;BME280;47650;49.848;9.620;2024-02-15T07:24:37;99952.53;;;12.59;100.00
61742;BME280;47650;49.848;9.620;2024-02-15T07:27:06;99919.50;;;12.44;100.00
61742;BME280;47650;49.848;9.620;2024-02-15T07:29:33;99951.66;;;12.69;100.00
61742;BME280;47650;49.848;9.620;2024-02-15T07:32:02;99959.13;;;12.83;100.00
61742;BME280;47650;49.848;9.620;2024-02-15T07:34:29;99894.50;;;12.55;100.00
61742;BME280;47650;49.848;9.620;2024-02-15T07:36:55;99958.66;;;13.06;100.00
61742;BME280;47650;49.848;9.620;2024-02-15T07:39:20;99943.28;;;13.17;100.00
61742;BME280;47650;49.848;9.620;2024-02-15T07:41:53;99943.88;;;13.29;100.00
61742;BME280;47650;49.848;9.620;2024-02-15T07:44:18;99949.47;;;13.36;100.00
61742;BME280;47650;49.848;9.620;2024-02-15T07:46:46;99949.34;;;13.46;100.00
61742;BME280;47650;49.848;9.620;2024-02-15T07:49:13;99957.09;;;13.57;100.00
61742;BME280;47650;49.848;9.620;2024-02-15T07:51:43;99948.09;;;13.58;100.00
61742;BME280;47650;49.848;9.620;2024-02-15T07:54:08;99932.03;;;13.42;100.00
61742;BME280;47650;49.848;9.620;2024-02-15T07:56:39;99933.00;;;13.41;100.00
61742;BME280;47650;49.848;9.620;2024-02-15T07:59:05;99952.44;;;13.15;100.00
61742;BME280;47650;49.848;9.620;2024-02-15T08:01:32;99951.66;;;13.23;100.00
61742;BME280;47650;49.848;9.620;2024-02-15T08:03:57;99943.31;;;13.00;100.00
61742;BME280;47650;49.848;9.620;2024-02-15T08:06:23;99953.09;;;13.17;100.00
61742;BME280;47650;49.848;9.620;2024-02-15T08:08:54;99960.09;;;12.64;100.00
61742;BME280;47650;49.848;9.620;2024-02-15T08:11:22;99937.06;;;12.55;100.00
61742;BME280;47650;49.848;9.620;2024-02-15T08:13:54;99929.75;;;12.39;100.00
61742;BME280;47650;49.848;9.620;2024-02-15T08:16:21;99956.38;;;12.75;100.00
61742;BME280;47650;49.848;9.620;2024-02-15T08:18:52;99949.63;;;12.81;100.00
61742;BME280;47650;49.848;9.620;2024-02-15T08:21:31;99942.09;;;12.76;100.00
61742;BME280;47650;49.848;9.620;2024-02-15T08:24:04;99949.13;;;13.21;100.00
61742;BME280;47650;49.848;9.620;2024-02-15T08:26:38;99948.59;;;13.35;100.00
61742;BME280;47650;49.848;9.620;2024-02-15T08:29:05;99939.41;;;13.48;100.00
61742;BME280;47650;49.848;9.620;2024-02-15T08:31:37;99809.88;;;12.94;100.00
61742;BME280;47650;49.848;9.620;2024-02-15T08:34:03;99937.81;;;13.89;100.00
61742;BME280;47650;49.848;9.620;2024-02-15T08:36:34;99862.56;;;13.35;100.00
61742;BME280;47650;49.848;9.620;2024-02-15T08:39:00;99890.09;;;13.26;100.00
61742;BME280;47650;49.848;9.620;2024-02-15T08:41:26;99881.34;;;12.89;100.00
61742;BME280;47650;49.848;9.620;2024-02-15T08:43:54;99939.13;;;13.59;100.00
61742;BME280;47650;49.848;9.620;2024-02-15T08:46:22;99933.72;;;13.07;100.00
61742;BME280;47650;49.848;9.620;2024-02-15T08:48:50;99932.44;;;13.55;100.00
61742;BME280;47650;49.848;9.620;2024-02-15T08:51:15;99871.84;;;13.57;100.00
61742;BME280;47650;49.848;9.620;2024-02-15T08:53:43;99932.75;;;14.13;100.00
61742;BME280;47650;49.848;9.620;2024-02-15T08:56:10;99930.16;;;13.60;100.00
61742;BME280;47650;49.848;9.620;2024-02-15T08:58:36;99933.66;;;13.95;100.00
61742;BME280;47650;49.848;9.620;2024-02-15T09:01:04;99911.56;;;14.11;100.00
61742;BME280;47650;49.848;9.620;2024-02-15T09:03:29;99925.69;;;14.46;100.00
61742;BME280;47650;49.848;9.620;2024-02-15T09:05:55;99928.97;;;14.99;100.00
61742;BME280;47650;49.848;9.620;2024-02-15T09:08:20;99917.97;;;15.35;100.00
61742;BME280;47650;49.848;9.620;2024-02-15T09:10:57;99925.53;;;15.71;100.00
61742;BME280;47650;49.848;9.620;2024-02-15T09:13:23;99906.44;;;15.01;100.00
61742;BME280;47650;49.848;9.620;2024-02-15T09:15:48;99920.59;;;15.59;100.00
61742;BME280;47650;49.848;9.620;2024-02-15T09:18:14;99923.78;;;14.81;100.00
61742;BME280;47650;49.848;9.620;2024-02-15T09:20:42;99922.63;;;15.16;100.00
61742;BME280;47650;49.848;9.620;2024-02-15T09:23:10;99923.56;;;15.65;100.00
61742;BME280;47650;49.848;9.620;2024-02-15T09:25:40;99922.41;;;16.23;100.00
61742;BME280;47650;49.848;9.620;2024-02-15T09:28:08;99917.78;;;16.71;100.00
61742;BME280;47650;49.848;9.620;2024-02-15T09:30:35;99897.94;;;16.89;100.00
61742;BME280;47650;49.848;9.620;2024-02-15T09:33:02;99904.44;;;16.63;100.00
61742;BME280;47650;49.848;9.620;2024-02-15T09:35:40;99905.31;;;17.25;100.00
61742;BME280;47650;49.848;9.620;2024-02-15T09:38:05;99906.56;;;16.68;96.13
61742;BME280;47650;49.848;9.620;2024-02-15T09:40:33;99910.88;;;17.23;100.00
61742;BME280;47650;49.848;9.620;2024-02-15T09:43:00;99916.47;;;15.96;100.00
61742;BME280;47650;49.848;9.620;2024-02-15T09:45:26;99904.13;;;16.89;100.00
61742;BME280;47650;49.848;9.620;2024-02-15T09:47:51;99902.16;;;17.21;100.00
61742;BME280;47650;49.848;9.620;2024-02-15T09:50:19;99904.84;;;17.74;100.00
61742;BME280;47650;49.848;9.620;2024-02-15T09:52:52;99888.84;;;17.66;90.21
61742;BME280;47650;49.848;9.620;2024-02-15T09:55:20;99890.69;;;17.13;91.39
61742;BME280;47650;49.848;9.620;2024-02-15T09:58:00;99887.34;;;17.48;85.32
61742;BME280;47650;49.848;9.620;2024-02-15T10:00:26;99862.69;;;18.56;78.68
61742;BME280;47650;49.848;9.620;2024-02-15T10:03:02;99887.47;;;18.94;74.31
61742;BME280;47650;49.848;9.620;2024-02-15T10:05:32;99886.44;;;18.74;73.76
61742;BME280;47650;49.848;9.620;2024-02-15T10:07:57;99870.72;;;17.98;78.99
61742;BME280;47650;49.848;9.620;2024-02-15T10:10:27;99861.47;;;19.58;69.00
61742;BME280;47650;49.848;9.620;2024-02-15T10:12:54;99882.72;;;19.18;63.79
61742;BME280;47650;49.848;9.620;2024-02-15T10:15:34;99871.38;;;19.23;65.57
61742;BME280;47650;49.848;9.620;2024-02-15T10:18:10;99882.34;;;20.39;59.66
61742;BME280;47650;49.848;9.620;2024-02-15T10:20:38;99879.53;;;19.08;61.80
61742;BME280;47650;49.848;9.620;2024-02-15T10:23:13;99862.38;;;21.09;57.97
61742;BME280;47650;49.848;9.620;2024-02-15T10:25:42;99849.00;;;21.74;53.60
61742;BME280;47650;49.848;9.620;2024-02-15T10:28:10;99858.41;;;23.56;50.78
61742;BME280;47650;49.848;9.620;2024-02-15T10:30:38;99845.94;;;23.36;45.38
61742;BME280;47650;49.848;9.620;2024-02-15T10:33:06;99863.56;;;22.88;47.39
61742;BME280;47650;49.848;9.620;2024-02-15T10:35:32;99825.81;;;23.25;47.29
61742;BME280;47650;49.848;9.620;2024-02-15T10:38:11;99837.78;;;21.77;49.35
61742;BME280;47650;49.848;9.620;2024-02-15T10:40:38;99854.06;;;21.37;50.44
61742;BME280;47650;49.848;9.620;2024-02-15T10:43:06;99851.66;;;20.27;53.12
61742;BME280;47650;49.848;9.620;2024-02-15T10:45:35;99835.50;;;18.22;62.47
61742;BME280;47650;49.848;9.620;2024-02-15T10:48:13;99855.72;;;18.61;60.89
61742;BME280;47650;49.848;9.620;2024-02-15T10:50:41;99814.22;;;19.42;61.10
61742;BME280;47650;49.848;9.620;2024-02-15T10:53:23;99826.50;;;19.58;60.32
61742;BME280;47650;49.848;9.620;2024-02-15T10:58:50;99795.69;;;18.69;62.78
61742;BME280;47650;49.848;9.620;2024-02-15T11:01:24;99844.47;;;19.51;58.98
61742;BME280;47650;49.848;9.620;2024-02-15T11:03:57;99835.69;;;20.19;56.70
61742;BME280;47650;49.848;9.620;2024-02-15T11:06:27;99816.31;;;21.30;54.54
61742;BME280;47650;49.848;9.620;2024-02-15T11:08:55;99800.59;;;20.87;52.32
61742;BME280;47650;49.848;9.620;2024-02-15T11:11:23;99771.91;;;22.23;49.26
61742;BME280;47650;49.848;9.620;2024-02-15T11:16:52;99813.72;;;23.03;47.59
61742;BME280;47650;49.848;9.620;2024-02-15T11:22:13;99810.50;;;22.37;46.99
61742;BME280;47650;49.848;9.620;2024-02-15T11:24:52;99791.34;;;21.68;47.86
61742;BME280;47650;49.848;9.620;2024-02-15T11:27:28;99808.34;;;22.14;46.55
61742;BME280;47650;49.848;9.620;2024-02-15T11:29:58;99780.41;;;22.84;46.62
61742;BME280;47650;49.848;9.620;2024-02-15T11:32:48;99758.63;;;22.22;44.72
61742;BME280;47650;49.848;9.620;2024-02-15T11:35:22;99785.34;;;22.68;43.33
61742;BME280;47650;49.848;9.620;2024-02-15T11:43:00;99726.34;;;24.37;39.95
61742;BME280;47650;49.848;9.620;2024-02-15T11:45:31;99709.84;;;25.33;37.06
61742;BME280;47650;49.848;9.620;2024-02-15T11:48:01;99755.66;;;26.27;36.69
61742;BME280;47650;49.848;9.620;2024-02-15T11:50:34;99755.03;;;25.15;37.50
61742;BME280;47650;49.848;9.620;2024-02-15T11:53:06;99731.97;;;25.94;36.47
61742;BME280;47650;49.848;9.620;2024-02-15T11:55:40;99770.69;;;27.81;33.52
61742;BME280;47650;49.848;9.620;2024-02-15T11:58:08;99705.28;;;28.41;30.55
61742;BME280;47650;49.848;9.620;2024-02-15T12:00:36;99732.16;;;28.92;30.14
61742;BME280;47650;49.848;9.620;2024-02-15T12:03:22;99742.44;;;28.47;30.64
61742;BME280;47650;49.848;9.620;2024-02-15T12:06:06;99732.56;;;28.08;31.68
61742;BME280;47650;49.848;9.620;2024-02-15T12:08:52;99738.56;;;25.86;34.53
61742;BME280;47650;49.848;9.620;2024-02-15T12:11:36;99738.34;;;24.41;35.60
61742;BME280;47650;49.848;9.620;2024-02-15T12:14:20;99708.78;;;23.86;36.32
61742;BME280;47650;49.848;9.620;2024-02-15T12:17:08;99740.84;;;24.43;36.55
61742;BME280;47650;49.848;9.620;2024-02-15T12:19:55;99715.44;;;24.91;35.47
61742;BME280;47650;49.848;9.620;2024-02-15T12:22:31;99738.53;;;24.58;36.06
61742;BME280;47650;49.848;9.620;2024-02-15T12:24:58;99715.50;;;26.63;33.06
61742;BME280;47650;49.848;9.620;2024-02-15T12:27:29;99721.56;;;26.88;32.53
61742;BME280;47650;49.848;9.620;2024-02-15T12:29:59;99731.72;;;25.55;33.62
61742;BME280;47650;49.848;9.620;2024-02-15T12:32:25;99710.81;;;26.98;32.87
61742;BME280;47650;49.848;9.620;2024-02-15T12:34:53;99725.31;;;25.09;34.77
61742;BME280;47650;49.848;9.620;2024-02-15T12:37:20;99713.34;;;27.71;31.54
61742;BME280;47650;49.848;9.620;2024-02-15T12:39:51;99646.25;;;28.19;30.20
61742;BME280;47650;49.848;9.620;2024-02-15T12:42:17;99707.72;;;28.05;30.58
61742;BME280;47650;49.848;9.620;2024-02-15T12:44:45;99689.00;;;27.86;30.66
61742;BME280;47650;49.848;9.620;2024-02-15T12:47:21;99678.09;;;29.57;28.57
61742;BME280;47650;49.848;9.620;2024-02-15T12:49:49;99703.19;;;27.88;29.53
61742;BME280;47650;49.848;9.620;2024-02-15T12:52:36;99711.41;;;25.86;32.80
61742;BME280;47650;49.848;9.620;2024-02-15T12:55:12;99701.63;;;24.03;35.35
61742;BME280;47650;49.848;9.620;2024-02-15T12:57:39;99711.78;;;24.85;34.53
61742;BME280;47650;49.848;9.620;2024-02-15T13:00:08;99716.19;;;24.32;35.36
61742;BME280;47650;49.848;9.620;2024-02-15T13:02:40;99719.38;;;22.51;36.17
61742;BME280;47650;49.848;9.620;2024-02-15T13:05:07;99651.88;;;22.88;36.40
61742;BME280;47650;49.848;9.620;2024-02-15T13:07:38;99642.06;;;22.31;37.42
61742;BME280;47650;49.848;9.620;2024-02-15T13:10:04;99696.50;;;23.53;37.22
61742;BME280;47650;49.848;9.620;2024-02-15T13:12:33;99636.09;;;23.40;35.95
61742;BME280;47650;49.848;9.620;2024-02-15T13:15:02;99686.44;;;24.56;36.30
61742;BME280;47650;49.848;9.620;2024-02-15T13:17:32;99672.28;;;24.89;34.75